createdAt,value
2023-04-22T00:00:14.081Z,99474.77
2023-04-22T00:02:42.643Z,99478.19
2023-04-22T00:05:15.656Z,99479.88
2023-04-22T00:07:45.263Z,99474.56
2023-04-22T00:10:13.317Z,99473.56
2023-04-22T00:12:41.562Z,99468.92
2023-04-22T00:15:10.989Z,99469.27
2023-04-22T00:17:40.286Z,99476.65
2023-04-22T00:20:10.913Z,99473.87
2023-04-22T00:22:38.909Z,99476.83
2023-04-22T00:25:10.135Z,99475.84
2023-04-22T00:27:38.331Z,99473.81
2023-04-22T00:30:07.300Z,99480.16
2023-04-22T00:32:35.575Z,99482.58
2023-04-22T00:35:03.970Z,99494.00
2023-04-22T00:37:32.190Z,99496.95
2023-04-22T00:40:00.290Z,99497.97
2023-04-22T00:42:28.379Z,99495.66
2023-04-22T00:44:56.387Z,99497.36
2023-04-22T00:47:27.083Z,99493.55
2023-04-22T00:49:55.393Z,99498.77
2023-04-22T00:52:23.476Z,99497.80
2023-04-22T00:54:52.376Z,99494.69
2023-04-22T00:57:21.012Z,99496.61
2023-04-22T00:59:49.093Z,99493.51
2023-04-22T01:02:19.874Z,99496.05
2023-04-22T01:04:48.448Z,99493.27
2023-04-22T01:07:16.762Z,99490.77
2023-04-22T01:09:44.902Z,99493.81
2023-04-22T01:12:12.925Z,99493.37
2023-04-22T01:14:41.709Z,99494.95
2023-04-22T01:17:10.948Z,99495.27
2023-04-22T01:19:39.365Z,99498.53
2023-04-22T01:22:08.555Z,99499.99
2023-04-22T01:24:39.914Z,99493.59
2023-04-22T01:27:08.462Z,99494.25
2023-04-22T01:29:38.171Z,99496.44
2023-04-22T01:32:06.705Z,99499.30
2023-04-22T01:34:35.341Z,99497.08
2023-04-22T01:37:03.281Z,99501.01
2023-04-22T01:39:31.378Z,99498.53
2023-04-22T01:41:59.748Z,99502.16
2023-04-22T01:44:27.876Z,99501.27
2023-04-22T01:46:55.992Z,99504.19
2023-04-22T01:49:24.177Z,99506.33
2023-04-22T01:51:52.247Z,99502.84
2023-04-22T01:54:21.747Z,99502.99
2023-04-22T01:56:53.084Z,99502.55
2023-04-22T01:59:21.727Z,99504.44
2023-04-22T02:01:50.606Z,99505.23
2023-04-22T02:04:19.221Z,99507.07
2023-04-22T02:06:47.348Z,99509.19
2023-04-22T02:09:15.717Z,99509.16
2023-04-22T02:11:44.089Z,99509.66
2023-04-22T02:14:13.488Z,99516.91
2023-04-22T02:16:42.485Z,99514.40
2023-04-22T02:19:11.074Z,99513.14
2023-04-22T02:21:39.863Z,99515.48
2023-04-22T02:24:08.097Z,99520.32
2023-04-22T02:26:36.083Z,99521.06
2023-04-22T02:29:04.047Z,99520.96
2023-04-22T02:31:32.062Z,99517.48
2023-04-22T02:34:00.313Z,99518.20
2023-04-22T02:36:28.887Z,99517.61
2023-04-22T02:38:57.102Z,99516.94
2023-04-22T02:41:25.143Z,99516.59
2023-04-22T02:43:53.308Z,99520.52
2023-04-22T02:46:21.458Z,99521.27
2023-04-22T02:48:49.921Z,99524.31
2023-04-22T02:51:18.572Z,99520.34
2023-04-22T02:53:46.623Z,99520.96
2023-04-22T02:56:14.773Z,99519.62
2023-04-22T02:58:45.016Z,99517.99
2023-04-22T03:01:12.994Z,99519.88
2023-04-22T03:03:41.565Z,99521.06
2023-04-22T03:06:11.363Z,99521.40
2023-04-22T03:08:39.857Z,99524.24
2023-04-22T03:11:07.873Z,99529.08
2023-04-22T03:15:10.911Z,99544.02
2023-04-22T03:17:38.996Z,99544.90
2023-04-22T03:20:11.710Z,99541.93
2023-04-22T03:22:39.861Z,99539.75
2023-04-22T03:25:10.886Z,99546.44
2023-04-22T03:27:39.189Z,99543.61
2023-04-22T03:30:08.189Z,99544.48
2023-04-22T03:32:36.501Z,99546.84
2023-04-22T03:35:16.599Z,99544.50
2023-04-22T03:37:45.458Z,99547.86
2023-04-22T03:40:13.996Z,99554.23
2023-04-22T03:42:42.868Z,99557.94
2023-04-22T03:45:11.223Z,99559.90
2023-04-22T03:47:42.541Z,99556.80
2023-04-22T03:50:18.429Z,99558.83
2023-04-22T03:52:46.717Z,99560.20
2023-04-22T03:55:17.516Z,99562.52
2023-04-22T03:57:46.042Z,99567.51
2023-04-22T04:00:14.427Z,99566.48
2023-04-22T04:02:42.820Z,99566.48
2023-04-22T04:05:12.840Z,99568.30
2023-04-22T04:07:43.918Z,99570.48
2023-04-22T04:10:12.031Z,99572.31
2023-04-22T04:12:40.122Z,99571.96
2023-04-22T04:15:09.136Z,99572.38
2023-04-22T04:17:37.284Z,99571.85
2023-04-22T04:20:07.210Z,99569.36
2023-04-22T04:22:36.164Z,99574.67
2023-04-22T04:25:06.994Z,99576.88
2023-04-22T04:27:39.557Z,99580.86
2023-04-22T04:30:09.782Z,99582.67
2023-04-22T04:32:45.655Z,99585.23
2023-04-22T04:35:16.353Z,99584.62
2023-04-22T04:37:47.996Z,99588.85
2023-04-22T04:40:16.394Z,99591.65
2023-04-22T04:42:53.211Z,99594.20
2023-04-22T04:45:24.352Z,99592.92
2023-04-22T04:47:55.264Z,99595.70
2023-04-22T04:50:28.158Z,99598.63
2023-04-22T04:52:58.204Z,99597.65
2023-04-22T04:55:31.814Z,99595.55
2023-04-22T04:58:00.604Z,99596.34
2023-04-22T05:00:29.229Z,99596.39
2023-04-22T05:02:57.551Z,99603.14
2023-04-22T05:05:25.668Z,99597.88
2023-04-22T05:07:53.948Z,99598.39
2023-04-22T05:10:22.148Z,99595.93
2023-04-22T05:12:51.239Z,99593.20
2023-04-22T05:15:22.636Z,99597.59
2023-04-22T05:17:50.728Z,99602.35
2023-04-22T05:20:18.811Z,99599.98
2023-04-22T05:22:47.035Z,99604.41
2023-04-22T05:25:16.333Z,99604.10
2023-04-22T05:27:51.491Z,99608.09
2023-04-22T05:30:19.803Z,99607.82
2023-04-22T05:32:47.810Z,99606.61
2023-04-22T05:35:16.216Z,99607.80
2023-04-22T05:37:44.225Z,99610.91
2023-04-22T05:40:12.351Z,99606.68
2023-04-22T05:42:40.800Z,99609.77
2023-04-22T05:45:09.257Z,99608.98
2023-04-22T05:47:39.131Z,99602.66
2023-04-22T05:50:08.019Z,99606.39
2023-04-22T05:52:41.938Z,99602.84
2023-04-22T05:55:15.278Z,99606.31
2023-04-22T05:57:44.403Z,99606.13
2023-04-22T06:00:23.299Z,99604.46
2023-04-22T06:02:58.202Z,99607.20
2023-04-22T06:05:26.517Z,99606.63
2023-04-22T06:07:54.751Z,99607.36
2023-04-22T06:10:22.817Z,99608.85
2023-04-22T06:12:51.026Z,99612.12
2023-04-22T06:15:19.060Z,99612.49
2023-04-22T06:17:48.697Z,99606.02
2023-04-22T06:20:16.735Z,99611.63
2023-04-22T06:22:45.190Z,99616.27
2023-04-22T06:25:13.407Z,99613.71
2023-04-22T06:27:41.377Z,99619.05
2023-04-22T06:30:11.697Z,99617.73
2023-04-22T06:32:40.991Z,99617.23
2023-04-22T06:35:09.160Z,99621.06
2023-04-22T06:37:37.210Z,99626.23
2023-04-22T06:40:08.019Z,99625.27
2023-04-22T06:42:56.730Z,99627.68
2023-04-22T06:45:42.358Z,99633.48
2023-04-22T06:48:35.700Z,99636.88
2023-04-22T06:51:14.536Z,99637.89
2023-04-22T06:53:42.545Z,99638.02
2023-04-22T06:56:12.645Z,99644.19
2023-04-22T06:58:40.570Z,99644.95
2023-04-22T07:01:08.619Z,99647.41
2023-04-22T07:03:37.490Z,99644.17
2023-04-22T07:06:09.652Z,99646.33
2023-04-22T07:08:37.828Z,99648.05
2023-04-22T07:11:05.915Z,99649.69
2023-04-22T07:14:03.362Z,99653.75
2023-04-22T07:16:31.384Z,99651.15
2023-04-22T07:18:59.716Z,99653.96
2023-04-22T07:21:27.771Z,99651.98
2023-04-22T07:23:55.686Z,99655.67
2023-04-22T07:26:23.913Z,99653.27
2023-04-22T07:28:51.988Z,99655.06
2023-04-22T07:31:21.129Z,99655.48
2023-04-22T07:33:49.683Z,99656.38
2023-04-22T07:36:17.684Z,99658.47
2023-04-22T07:38:45.741Z,99659.02
2023-04-22T07:41:14.908Z,99661.95
2023-04-22T07:43:45.141Z,99661.75
2023-04-22T07:46:13.235Z,99663.10
2023-04-22T07:48:41.624Z,99666.19
2023-04-22T07:51:09.616Z,99666.56
2023-04-22T07:53:37.581Z,99666.41
2023-04-22T07:56:05.671Z,99666.20
2023-04-22T07:58:33.759Z,99671.28
2023-04-22T08:01:02.000Z,99671.52
2023-04-22T08:03:30.333Z,99674.29
2023-04-22T08:05:58.535Z,99671.77
2023-04-22T08:08:26.629Z,99675.61
2023-04-22T08:10:54.501Z,99678.77
2023-04-22T08:13:22.503Z,99677.38
2023-04-22T08:15:50.586Z,99677.10
2023-04-22T08:18:18.544Z,99677.79
2023-04-22T08:20:47.864Z,99678.14
2023-04-22T08:23:15.841Z,99678.45
2023-04-22T08:25:43.794Z,99682.88
2023-04-22T08:28:11.732Z,99683.94
2023-04-22T08:30:39.816Z,99686.80
2023-04-22T08:33:07.741Z,99681.85
2023-04-22T08:35:36.131Z,99680.73
2023-04-22T08:38:04.046Z,99682.92
2023-04-22T08:40:32.258Z,99679.62
2023-04-22T08:43:00.307Z,99682.80
2023-04-22T08:45:28.186Z,99679.67
2023-04-22T08:47:56.237Z,99675.59
2023-04-22T08:50:25.374Z,99678.17
2023-04-22T08:52:53.670Z,99677.24
2023-04-22T08:55:21.546Z,99676.95
2023-04-22T08:57:50.384Z,99673.13
2023-04-22T09:00:19.602Z,99677.20
2023-04-22T09:02:48.432Z,99681.38
2023-04-22T09:05:16.673Z,99686.59
2023-04-22T09:07:46.151Z,99686.89
2023-04-22T09:10:14.066Z,99682.49
2023-04-22T09:12:42.128Z,99682.81
2023-04-22T09:15:11.141Z,99681.52
2023-04-22T09:17:39.413Z,99679.05
2023-04-22T09:20:08.962Z,99679.55
2023-04-22T09:22:45.392Z,99677.96
2023-04-22T09:25:20.891Z,99675.51
2023-04-22T09:27:58.728Z,99676.42
2023-04-22T09:30:31.009Z,99678.29
2023-04-22T09:33:01.295Z,99676.80
2023-04-22T09:35:31.764Z,99676.22
2023-04-22T09:38:01.236Z,99672.48
2023-04-22T09:40:30.256Z,99668.27
2023-04-22T09:43:00.717Z,99671.29
2023-04-22T09:45:29.974Z,99669.52
2023-04-22T09:48:01.162Z,99664.05
2023-04-22T09:50:29.437Z,99663.89
2023-04-22T09:53:00.278Z,99668.39
2023-04-22T09:55:28.773Z,99669.04
2023-04-22T09:57:57.582Z,99670.14
2023-04-22T10:00:28.549Z,99669.71
2023-04-22T10:02:57.221Z,99671.75
2023-04-22T10:05:25.560Z,99678.30
2023-04-22T10:07:53.688Z,99682.21
2023-04-22T10:10:21.803Z,99688.11
2023-04-22T10:12:49.954Z,99687.27
2023-04-22T10:15:18.012Z,99685.00
2023-04-22T10:17:46.335Z,99684.92
2023-04-22T10:20:16.906Z,99681.15
2023-04-22T10:22:45.437Z,99685.38
2023-04-22T10:25:24.646Z,99690.17
2023-04-22T10:28:06.328Z,99692.02
2023-04-22T10:30:36.710Z,99688.34
2023-04-22T10:33:31.488Z,99692.55
2023-04-22T10:36:15.340Z,99692.85
2023-04-22T10:38:55.771Z,99691.17
2023-04-22T10:41:32.077Z,99699.16
2023-04-22T10:44:09.213Z,99699.35
2023-04-22T10:46:40.348Z,99696.27
2023-04-22T10:49:18.358Z,99698.48
2023-04-22T10:51:47.934Z,99697.61
2023-04-22T10:54:37.156Z,99697.39
2023-04-22T10:57:11.940Z,99692.19
2023-04-22T10:59:50.397Z,99690.63
2023-04-22T11:02:19.256Z,99687.79
2023-04-22T11:04:47.894Z,99690.26
2023-04-22T11:07:28.012Z,99690.48
2023-04-22T11:10:01.667Z,99689.20
2023-04-22T11:12:35.954Z,99686.81
2023-04-22T11:15:13.918Z,99681.37
2023-04-22T11:17:43.822Z,99685.80
2023-04-22T11:20:13.065Z,99694.96
2023-04-22T11:22:42.817Z,99697.69
2023-04-22T11:25:10.922Z,99705.50
2023-04-22T11:27:39.699Z,99699.55
2023-04-22T11:30:09.238Z,99700.75
2023-04-22T11:32:39.130Z,99702.41
2023-04-22T11:35:11.843Z,99700.42
2023-04-22T11:37:50.770Z,99708.20
2023-04-22T11:40:32.081Z,99707.40
2023-04-22T11:43:02.502Z,99708.75
2023-04-22T11:45:32.487Z,99704.11
2023-04-22T11:48:01.060Z,99706.67
2023-04-22T11:50:40.351Z,99709.91
2023-04-22T11:53:21.184Z,99707.75
2023-04-22T11:55:53.600Z,99708.34
2023-04-22T11:58:27.196Z,99711.04
2023-04-22T12:00:56.397Z,99714.33
2023-04-22T12:03:25.966Z,99709.66
2023-04-22T12:06:00.417Z,99707.13
2023-04-22T12:08:33.528Z,99714.23
2023-04-22T12:11:04.019Z,99713.08
2023-04-22T12:13:38.968Z,99713.62
2023-04-22T12:16:14.464Z,99712.45
2023-04-22T12:18:49.841Z,99707.38
2023-04-22T12:21:20.288Z,99705.51
2023-04-22T12:23:57.309Z,99705.42
2023-04-22T12:26:28.801Z,99706.11
2023-04-22T12:28:58.221Z,99703.63
2023-04-22T12:31:26.915Z,99703.30
2023-04-22T12:33:55.039Z,99700.38
2023-04-22T12:36:23.681Z,99700.23
2023-04-22T12:38:51.755Z,99704.25
2023-04-22T12:41:19.706Z,99705.44
2023-04-22T12:43:47.982Z,99705.11
2023-04-22T12:46:16.531Z,99709.06
2023-04-22T12:48:44.967Z,99711.58
2023-04-22T12:51:13.005Z,99707.80
2023-04-22T12:53:40.927Z,99704.77
2023-04-22T12:56:08.948Z,99700.54
2023-04-22T12:58:37.083Z,99697.80
2023-04-22T13:01:05.253Z,99697.80
2023-04-22T13:03:36.823Z,99697.67
2023-04-22T13:06:04.932Z,99694.70
2023-04-22T13:08:33.026Z,99696.52
2023-04-22T13:11:01.023Z,99697.70
2023-04-22T13:13:29.797Z,99701.73
2023-04-22T13:15:57.811Z,99704.38
2023-04-22T13:18:25.925Z,99699.80
2023-04-22T13:20:56.885Z,99697.38
2023-04-22T13:23:26.001Z,99702.25
2023-04-22T13:25:54.296Z,99704.29
2023-04-22T13:28:22.241Z,99707.29
2023-04-22T13:30:50.269Z,99709.72
2023-04-22T13:33:18.850Z,99706.08
2023-04-22T13:35:46.926Z,99708.11
2023-04-22T13:38:15.612Z,99708.08
2023-04-22T13:40:43.675Z,99710.21
2023-04-22T13:43:11.737Z,99715.27
2023-04-22T13:45:40.879Z,99711.98
2023-04-22T13:48:09.030Z,99710.76
2023-04-22T13:50:37.230Z,99713.52
2023-04-22T13:53:09.962Z,99712.83
2023-04-22T13:55:38.607Z,99706.98
2023-04-22T13:58:07.787Z,99705.28
2023-04-22T14:00:36.021Z,99709.40
2023-04-22T14:03:04.246Z,99706.64
2023-04-22T14:05:32.498Z,99709.14
2023-04-22T14:08:03.737Z,99711.38
2023-04-22T14:10:31.619Z,99715.13
2023-04-22T14:12:59.773Z,99711.58
2023-04-22T14:15:27.817Z,99710.88
2023-04-22T14:17:55.882Z,99710.88
2023-04-22T14:20:25.340Z,99715.29
2023-04-22T14:22:53.283Z,99713.96
2023-04-22T14:25:21.270Z,99713.60
2023-04-22T14:27:50.901Z,99716.83
2023-04-22T14:30:20.282Z,99712.23
2023-04-22T14:32:49.142Z,99710.20
2023-04-22T14:35:18.051Z,99716.95
2023-04-22T14:37:48.978Z,99721.14
2023-04-22T14:40:17.507Z,99720.43
2023-04-22T14:42:45.870Z,99722.07
2023-04-22T14:45:14.799Z,99722.89
2023-04-22T14:47:44.457Z,99722.06
2023-04-22T14:50:12.486Z,99721.76
2023-04-22T14:52:41.061Z,99723.17
2023-04-22T14:55:21.884Z,99726.72
2023-04-22T14:57:53.947Z,99729.57
2023-04-22T15:00:22.001Z,99734.89
2023-04-22T15:02:50.433Z,99738.33
2023-04-22T15:05:18.559Z,99734.79
2023-04-22T15:07:46.773Z,99739.46
2023-04-22T15:10:15.225Z,99737.00
2023-04-22T15:12:44.349Z,99741.27
2023-04-22T15:15:16.881Z,99741.73
2023-04-22T15:17:45.093Z,99746.02
2023-04-22T15:20:13.318Z,99746.01
2023-04-22T15:23:19.918Z,99746.27
2023-04-22T15:25:47.649Z,99746.02
2023-04-22T15:28:15.682Z,99747.59
2023-04-22T15:32:19.010Z,99745.73
2023-04-22T15:34:47.167Z,99743.88
2023-04-22T15:37:16.235Z,99746.88
2023-04-22T15:39:44.144Z,99744.81
2023-04-22T15:42:12.085Z,99748.21
2023-04-22T15:44:40.682Z,99751.83
2023-04-22T15:47:09.688Z,99757.34
2023-04-22T15:49:40.761Z,99754.67
2023-04-22T15:52:09.357Z,99758.35
2023-04-22T15:54:38.038Z,99758.75
2023-04-22T15:57:06.056Z,99759.77
2023-04-22T15:59:33.947Z,99763.45
2023-04-22T16:02:02.040Z,99760.31
2023-04-22T16:04:30.348Z,99760.98
2023-04-22T16:06:59.428Z,99762.71
2023-04-22T16:09:27.830Z,99764.67
2023-04-22T16:11:56.913Z,99766.89
2023-04-22T16:14:24.941Z,99768.05
2023-04-22T16:16:53.176Z,99771.12
2023-04-22T16:19:21.820Z,99769.64
2023-04-22T16:21:50.455Z,99777.55
2023-04-22T16:24:18.364Z,99779.83
2023-04-22T16:26:46.312Z,99781.15
2023-04-22T16:29:14.246Z,99783.13
2023-04-22T16:31:42.183Z,99783.64
2023-04-22T16:34:10.172Z,99789.20
2023-04-22T16:36:38.455Z,99789.11
2023-04-22T16:39:06.924Z,99791.69
2023-04-22T16:41:36.296Z,99792.17
2023-04-22T16:44:04.275Z,99795.17
2023-04-22T16:46:32.375Z,99792.26
2023-04-22T16:49:00.349Z,99797.36
2023-04-22T16:51:28.528Z,99797.35
2023-04-22T16:53:56.606Z,99796.29
2023-04-22T16:56:24.604Z,99803.36
2023-04-22T16:58:52.635Z,99801.90
2023-04-22T17:01:20.699Z,99803.11
2023-04-22T17:06:16.774Z,99807.55
2023-04-22T17:08:44.666Z,99812.19
2023-04-22T17:11:12.645Z,99813.88
2023-04-22T17:13:40.894Z,99817.18
2023-04-22T17:16:11.080Z,99821.86
2023-04-22T17:18:39.299Z,99825.43
2023-04-22T17:21:07.382Z,99826.27
2023-04-22T17:23:35.993Z,99835.60
2023-04-22T17:26:03.922Z,99836.21
2023-04-22T17:28:32.665Z,99840.54
2023-04-22T17:31:00.804Z,99840.62
2023-04-22T17:33:30.220Z,99841.23
2023-04-22T17:36:12.006Z,99845.67
2023-04-22T17:38:41.499Z,99849.64
2023-04-22T17:41:09.469Z,99852.20
2023-04-22T17:43:38.607Z,99855.48
2023-04-22T17:46:06.573Z,99858.41
2023-04-22T17:48:36.659Z,99861.02
2023-04-22T17:51:06.565Z,99859.53
2023-04-22T17:53:34.617Z,99867.09
2023-04-22T17:56:02.629Z,99869.48
2023-04-22T17:58:30.631Z,99871.75
2023-04-22T18:00:59.625Z,99875.42
2023-04-22T18:03:27.947Z,99875.52
2023-04-22T18:05:56.155Z,99881.07
2023-04-22T18:08:24.692Z,99883.13
2023-04-22T18:10:54.072Z,99885.05
2023-04-22T18:13:25.363Z,99884.45
2023-04-22T18:15:53.451Z,99890.38
2023-04-22T18:18:21.712Z,99892.33
2023-04-22T18:20:51.241Z,99889.66
2023-04-22T18:23:19.696Z,99890.89
2023-04-22T18:25:48.097Z,99890.49
2023-04-22T18:28:16.257Z,99894.89
2023-04-22T18:30:44.344Z,99900.42
2023-04-22T18:33:12.299Z,99902.73
2023-04-22T18:35:42.123Z,99905.70
2023-04-22T18:38:10.106Z,99903.52
2023-04-22T18:40:38.088Z,99902.37
2023-04-22T18:43:12.775Z,99900.30
2023-04-22T18:45:41.366Z,99897.13
2023-04-22T18:48:09.313Z,99900.27
2023-04-22T18:50:37.539Z,99900.90
2023-04-22T18:53:05.571Z,99903.58
2023-04-22T18:55:33.626Z,99904.21
2023-04-22T18:58:01.563Z,99911.25
2023-04-22T19:00:29.687Z,99913.40
2023-04-22T19:02:57.657Z,99913.67
2023-04-22T19:05:25.686Z,99910.71
2023-04-22T19:07:54.056Z,99910.83
2023-04-22T19:10:22.194Z,99910.26
2023-04-22T19:12:51.375Z,99910.98
2023-04-22T19:15:22.178Z,99912.67
2023-04-22T19:17:50.439Z,99914.70
2023-04-22T19:20:18.616Z,99918.21
2023-04-22T19:22:46.614Z,99921.09
2023-04-22T19:25:14.513Z,99922.04
2023-04-22T19:27:42.990Z,99923.75
2023-04-22T19:30:11.880Z,99925.75
2023-04-22T19:32:40.859Z,99929.36
2023-04-22T19:35:12.596Z,99925.98
2023-04-22T19:37:41.552Z,99924.65
2023-04-22T19:40:09.880Z,99927.95
2023-04-22T19:42:39.427Z,99930.28
2023-04-22T19:45:09.429Z,99930.61
2023-04-22T19:47:38.612Z,99934.52
2023-04-22T19:50:08.159Z,99933.73
2023-04-22T19:52:36.402Z,99937.64
2023-04-22T19:55:08.986Z,99938.29
2023-04-22T19:57:37.349Z,99938.36
2023-04-22T20:00:07.763Z,99933.37
2023-04-22T20:02:44.784Z,99941.80
2023-04-22T20:05:13.491Z,99945.34
2023-04-22T20:07:42.040Z,99945.25
2023-04-22T20:10:10.318Z,99943.84
2023-04-22T20:12:39.913Z,99944.37
2023-04-22T20:15:09.592Z,99947.27
2023-04-22T20:17:39.279Z,99946.73
2023-04-22T20:20:12.950Z,99944.55
2023-04-22T20:22:42.356Z,99947.39
2023-04-22T20:25:14.962Z,99946.50
2023-04-22T20:27:44.366Z,99948.64
2023-04-22T20:30:13.927Z,99947.64
2023-04-22T20:32:42.653Z,99952.80
2023-04-22T20:35:14.966Z,99945.55
2023-04-22T20:37:46.261Z,99950.45
2023-04-22T20:40:15.749Z,99956.77
2023-04-22T20:42:46.916Z,99951.67
2023-04-22T20:45:15.968Z,99959.86
2023-04-22T20:47:45.811Z,99951.86
2023-04-22T20:50:14.014Z,99951.00
2023-04-22T20:52:43.482Z,99954.47
2023-04-22T20:55:11.429Z,99950.85
2023-04-22T20:57:39.512Z,99950.58
2023-04-22T21:00:08.286Z,99949.95
2023-04-22T21:02:37.117Z,99949.58
2023-04-22T21:05:06.869Z,99951.24
2023-04-22T21:07:36.044Z,99953.02
2023-04-22T21:10:04.582Z,99951.60
2023-04-22T21:12:33.227Z,99951.50
2023-04-22T21:15:01.590Z,99948.27
2023-04-22T21:17:30.975Z,99951.61
2023-04-22T21:19:58.928Z,99954.74
2023-04-22T21:22:27.471Z,99955.45
2023-04-22T21:24:55.771Z,99954.67
2023-04-22T21:27:24.430Z,99954.59
2023-04-22T21:29:52.608Z,99956.34
2023-04-22T21:32:21.082Z,99958.80
2023-04-22T21:34:49.898Z,99957.76
2023-04-22T21:37:17.842Z,99953.17
2023-04-22T21:39:47.285Z,99960.08
2023-04-22T21:42:15.216Z,99957.86
2023-04-22T21:44:49.518Z,99955.77
2023-04-22T21:47:17.722Z,99957.90
2023-04-22T21:49:47.099Z,99957.67
2023-04-22T21:52:15.404Z,99956.40
2023-04-22T21:54:43.910Z,99959.30
2023-04-22T21:57:12.057Z,99958.92
2023-04-22T21:59:40.338Z,99960.65
2023-04-22T22:02:08.273Z,99962.17
2023-04-22T22:04:36.460Z,99964.17
2023-04-22T22:07:04.686Z,99963.91
2023-04-22T22:09:33.013Z,99965.15
2023-04-22T22:12:01.916Z,99965.04
2023-04-22T22:14:30.131Z,99968.64
2023-04-22T22:16:58.203Z,99967.39
2023-04-22T22:19:27.802Z,99970.35
2023-04-22T22:21:56.307Z,99974.76
2023-04-22T22:24:24.314Z,99974.05
2023-04-22T22:26:52.276Z,99972.10
2023-04-22T22:29:20.239Z,99973.77
2023-04-22T22:31:48.344Z,99970.02
2023-04-22T22:34:16.662Z,99969.45
2023-04-22T22:36:44.593Z,99971.50
2023-04-22T22:39:14.626Z,99971.39
2023-04-22T22:41:44.071Z,99970.64
2023-04-22T22:44:12.416Z,99972.98
2023-04-22T22:46:40.790Z,99971.20
2023-04-22T22:49:09.368Z,99974.48
2023-04-22T22:51:37.605Z,99973.12
2023-04-22T22:54:05.807Z,99975.80
2023-04-22T22:56:33.993Z,99978.95
2023-04-22T22:59:01.923Z,99983.67
2023-04-22T23:01:30.532Z,99984.06
2023-04-22T23:03:59.012Z,99981.17
2023-04-22T23:06:27.376Z,99977.24
2023-04-22T23:08:55.489Z,99977.60
2023-04-22T23:11:23.670Z,99977.92
2023-04-22T23:13:52.035Z,99974.92
2023-04-22T23:16:21.075Z,99975.41
2023-04-22T23:18:49.181Z,99979.21
2023-04-22T23:21:17.263Z,99982.05
2023-04-22T23:23:45.525Z,99982.36
2023-04-22T23:26:14.011Z,99982.33
2023-04-22T23:28:42.382Z,99988.77
2023-04-22T23:31:10.762Z,99993.69
2023-04-22T23:33:40.452Z,99987.50
2023-04-22T23:36:09.341Z,99991.63
2023-04-22T23:38:37.900Z,99993.27
2023-04-22T23:41:06.505Z,99987.20
2023-04-22T23:43:35.227Z,99987.61
2023-04-22T23:46:03.348Z,99985.05
2023-04-22T23:48:33.825Z,99991.14
2023-04-22T23:51:01.789Z,99991.25
2023-04-22T23:53:29.919Z,99996.47
2023-04-22T23:55:58.597Z,100004.36
2023-04-22T23:58:26.818Z,99998.79
